YCD weather

Nanaimo Airport
Nanaimo, British Columbia, Canada

Public forecast

Using degrees Celsius for public forecast. Weather courtesy of forecast.io.

METAR (pilot weather report)

Report is more than 2 hours old.

Retrieved 2019/05/23 04:00 UTC (5 hours ago):

CYCD 230400Z VRB02KT 30SM FEW090 19/10 A2997 RMK AC1 LAST STFD OBS/NEXT 231300Z SLP149 DENSITY ALT 600FT

TAF (pilot weather forecast)

Forecast is more than 12 hours old.

Retrieved 2019/05/22 00:00 UTC (1 day ago):

TAF CYCD 222338Z 2300/2304 04008KT P6SM FEW060 RMK NXT FCST WILL BE ISSUED AT 231445Z